createdAt,value
2022-10-31T00:02:52.638Z,31
2022-10-31T00:07:34.901Z,24
2022-10-31T00:12:16.127Z,24
2022-10-31T00:16:58.405Z,31
2022-10-31T00:21:40.773Z,31
2022-10-31T00:31:05.259Z,18
2022-10-31T00:40:29.882Z,18
2022-10-31T00:45:12.118Z,15
2022-10-31T00:49:54.382Z,15
2022-10-31T00:54:36.699Z,15
2022-10-31T00:59:19.001Z,15
2022-10-31T01:04:01.240Z,18
2022-10-31T01:08:43.575Z,18
2022-10-31T01:18:07.043Z,18
2022-10-31T01:27:31.709Z,18
2022-10-31T01:32:13.903Z,18
2022-10-31T01:36:56.198Z,18
2022-10-31T01:41:38.589Z,18
2022-10-31T01:46:20.903Z,18
2022-10-31T01:51:03.015Z,18
2022-10-31T01:55:45.345Z,18
2022-10-31T02:05:09.867Z,18
2022-10-31T02:14:34.472Z,18
2022-10-31T02:19:15.776Z,18
2022-10-31T02:23:57.988Z,18
2022-10-31T02:28:40.295Z,18
2022-10-31T02:33:22.604Z,18
2022-10-31T02:38:04.819Z,16
2022-10-31T02:42:47.128Z,15
2022-10-31T02:47:29.459Z,15
2022-10-31T02:52:11.754Z,15
2022-10-31T03:01:36.295Z,15
2022-10-31T03:06:18.658Z,15
2022-10-31T03:11:00.806Z,15
2022-10-31T03:15:43.109Z,15
2022-10-31T03:20:24.431Z,15
2022-10-31T03:25:06.760Z,15
2022-10-31T03:29:48.959Z,15
2022-10-31T03:39:13.553Z,15
2022-10-31T03:53:20.406Z,15
2022-10-31T03:58:02.645Z,15
2022-10-31T04:02:44.952Z,15
2022-10-31T04:07:27.221Z,15
2022-10-31T04:12:09.529Z,15
2022-10-31T04:16:51.733Z,16
2022-10-31T04:26:15.351Z,12
2022-10-31T04:35:39.875Z,15
2022-10-31T04:40:22.189Z,15
2022-10-31T04:45:04.497Z,16
2022-10-31T04:49:46.706Z,15
2022-10-31T04:54:29.130Z,15
2022-10-31T04:59:11.331Z,15
2022-10-31T05:03:53.555Z,15
2022-10-31T05:08:35.894Z,15
2022-10-31T05:13:18.273Z,15
2022-10-31T05:18:00.478Z,15
2022-10-31T05:22:42.681Z,15
2022-10-31T05:27:23.986Z,18
2022-10-31T05:32:06.300Z,20
2022-10-31T05:36:48.625Z,31
2022-10-31T05:41:30.859Z,62
2022-10-31T05:46:13.130Z,106
2022-10-31T05:50:55.443Z,138
2022-10-31T05:55:37.664Z,260
2022-10-31T06:00:20.010Z,437
2022-10-31T06:05:01.274Z,620
2022-10-31T06:09:43.598Z,878
2022-10-31T06:14:25.001Z,1146
2022-10-31T06:19:07.115Z,1362
2022-10-31T06:23:49.411Z,1608
2022-10-31T06:28:31.748Z,1863
2022-10-31T06:33:13.984Z,2104
2022-10-31T06:37:56.242Z,2367
2022-10-31T06:42:38.555Z,2861
2022-10-31T06:47:20.909Z,2987
2022-10-31T06:52:03.077Z,3544
2022-10-31T06:56:45.386Z,3867
2022-10-31T07:01:26.732Z,3712
2022-10-31T07:06:09.004Z,3715
2022-10-31T07:10:50.313Z,4246
2022-10-31T07:15:32.523Z,4302
2022-10-31T07:20:14.911Z,4477
2022-10-31T07:24:57.177Z,4621
2022-10-31T07:29:39.466Z,5079
2022-10-31T07:34:21.731Z,5546
2022-10-31T07:39:03.976Z,5823
2022-10-31T07:43:46.191Z,6117
2022-10-31T07:48:28.497Z,6474
2022-10-31T07:53:10.895Z,6907
2022-10-31T07:57:53.022Z,6980
2022-10-31T08:02:35.352Z,7352
2022-10-31T08:07:17.679Z,7492
2022-10-31T08:11:59.002Z,7638
2022-10-31T08:21:23.519Z,8390
2022-10-31T08:26:05.818Z,8832
2022-10-31T08:30:47.997Z,10498
2022-10-31T08:35:30.307Z,21840
2022-10-31T08:40:12.617Z,9595
2022-10-31T08:44:54.964Z,10323
2022-10-31T08:49:37.139Z,15771
2022-10-31T08:54:19.456Z,17553
2022-10-31T08:59:01.770Z,11038
2022-10-31T09:03:44.048Z,11988
2022-10-31T09:08:26.286Z,11543
2022-10-31T09:13:08.654Z,24462
2022-10-31T09:17:49.917Z,25517
2022-10-31T09:22:32.125Z,26008
2022-10-31T09:27:14.425Z,25256
2022-10-31T09:31:56.653Z,26283
2022-10-31T09:36:39.033Z,28767
2022-10-31T09:41:21.260Z,32826
2022-10-31T09:46:03.524Z,37309
2022-10-31T09:50:45.788Z,39351
2022-10-31T09:55:28.137Z,38292
2022-10-31T10:00:10.452Z,45233
2022-10-31T10:04:52.613Z,39371
2022-10-31T10:09:34.925Z,40693
2022-10-31T10:14:17.261Z,44520
2022-10-31T10:18:59.449Z,42394
2022-10-31T10:23:40.758Z,44007
2022-10-31T10:33:05.286Z,50902
2022-10-31T10:37:47.605Z,49923
2022-10-31T10:42:29.924Z,58352
2022-10-31T10:47:12.246Z,59908
2022-10-31T10:56:36.740Z,52676
2022-10-31T11:01:19.058Z,48434
2022-10-31T11:06:01.267Z,50619
2022-10-31T11:10:43.693Z,48522
2022-10-31T11:15:26.044Z,49135
2022-10-31T11:20:08.356Z,43933
2022-10-31T11:24:50.450Z,43093
2022-10-31T11:29:31.734Z,44165
2022-10-31T11:34:14.039Z,43622
2022-10-31T11:38:56.302Z,38628
2022-10-31T11:43:38.579Z,32247
2022-10-31T11:48:20.876Z,32768
2022-10-31T11:53:03.089Z,35405
2022-10-31T11:57:45.439Z,35686
2022-10-31T12:02:27.816Z,34067
2022-10-31T12:07:10.177Z,34965
2022-10-31T12:16:34.537Z,34557
2022-10-31T12:21:16.988Z,38855
2022-10-31T12:25:59.156Z,35713
2022-10-31T12:30:40.411Z,34435
2022-10-31T12:35:22.776Z,35256
2022-10-31T12:44:47.204Z,27186
2022-10-31T12:49:29.534Z,22433
2022-10-31T12:54:11.921Z,17246
2022-10-31T13:03:36.420Z,14507
2022-10-31T13:08:18.676Z,13613
2022-10-31T13:17:43.180Z,11802
2022-10-31T13:22:24.539Z,10819
2022-10-31T13:27:05.942Z,9390
2022-10-31T13:31:48.247Z,8392
2022-10-31T13:36:30.475Z,8145
2022-10-31T13:41:12.624Z,8642
2022-10-31T13:45:54.934Z,9628
2022-10-31T13:55:19.496Z,9419
2022-10-31T14:00:01.874Z,10842
2022-10-31T14:04:43.976Z,19772
2022-10-31T14:09:26.427Z,19468
2022-10-31T14:14:08.647Z,22706
2022-10-31T14:18:50.917Z,19581
2022-10-31T14:23:33.158Z,14401
2022-10-31T14:28:15.557Z,11992
2022-10-31T14:37:40.134Z,8416
2022-10-31T14:42:21.331Z,7203
2022-10-31T14:47:02.635Z,6399
2022-10-31T14:51:44.878Z,5890
2022-10-31T14:56:26.211Z,5558
2022-10-31T15:01:08.398Z,5165
2022-10-31T15:05:50.733Z,4525
2022-10-31T15:10:33.023Z,3682
2022-10-31T15:15:15.271Z,2775
2022-10-31T15:24:39.950Z,1560
2022-10-31T15:29:22.061Z,1213
2022-10-31T15:34:04.411Z,1021
2022-10-31T15:43:28.993Z,663
2022-10-31T15:48:11.251Z,462
2022-10-31T15:52:53.555Z,317
2022-10-31T15:57:34.823Z,218
2022-10-31T16:02:17.035Z,127
2022-10-31T16:06:59.363Z,74
2022-10-31T16:11:41.674Z,36
2022-10-31T16:16:23.862Z,24
2022-10-31T16:21:06.174Z,18
2022-10-31T16:25:48.485Z,15
2022-10-31T16:30:30.790Z,9
2022-10-31T16:35:13.041Z,9
2022-10-31T16:39:55.315Z,9
2022-10-31T16:44:37.637Z,9
2022-10-31T16:49:19.832Z,9
2022-10-31T16:54:02.142Z,9
2022-10-31T16:58:44.453Z,9
2022-10-31T17:03:25.778Z,9
2022-10-31T17:08:07.096Z,9
2022-10-31T17:12:49.291Z,9
2022-10-31T17:17:31.587Z,9
2022-10-31T17:22:13.902Z,9
2022-10-31T17:26:56.115Z,9
2022-10-31T17:31:38.419Z,9
2022-10-31T17:41:02.938Z,9
2022-10-31T17:45:45.266Z,9
2022-10-31T17:55:09.787Z,9
2022-10-31T17:59:52.079Z,9
2022-10-31T18:04:34.390Z,9
2022-10-31T18:09:15.763Z,9
2022-10-31T18:13:57.007Z,4
2022-10-31T18:18:39.231Z,9
2022-10-31T18:23:21.567Z,4
2022-10-31T18:28:03.848Z,4
2022-10-31T18:32:46.082Z,4
2022-10-31T18:37:28.384Z,4
2022-10-31T18:42:10.707Z,4
2022-10-31T18:46:52.875Z,9
2022-10-31T18:51:35.190Z,4
2022-10-31T18:56:17.555Z,9
2022-10-31T19:00:58.828Z,4
2022-10-31T19:05:40.180Z,9
2022-10-31T19:10:22.330Z,9
2022-10-31T19:15:04.699Z,4
2022-10-31T19:19:46.949Z,4
2022-10-31T19:24:29.301Z,4
2022-10-31T19:29:11.534Z,9
2022-10-31T19:38:36.086Z,9
2022-10-31T19:43:18.315Z,4
2022-10-31T19:48:00.608Z,9
2022-10-31T19:52:42.942Z,9
2022-10-31T19:57:25.152Z,9
2022-10-31T20:02:07.456Z,9
2022-10-31T20:06:48.827Z,9
2022-10-31T20:11:31.056Z,9
2022-10-31T20:20:55.587Z,9
2022-10-31T20:25:37.903Z,9
2022-10-31T20:30:19.194Z,9
2022-10-31T20:35:00.550Z,4
2022-10-31T20:39:42.719Z,4
2022-10-31T20:44:24.987Z,4
2022-10-31T20:49:07.296Z,9
2022-10-31T20:53:49.615Z,9
2022-10-31T20:58:31.883Z,9
2022-10-31T21:03:14.169Z,9
2022-10-31T21:07:56.448Z,9
2022-10-31T21:12:38.749Z,4
2022-10-31T21:17:20.981Z,4
2022-10-31T21:22:02.288Z,4
2022-10-31T21:26:43.658Z,4
2022-10-31T21:31:25.889Z,4
2022-10-31T21:36:08.214Z,4
2022-10-31T21:40:50.424Z,4
2022-10-31T21:45:32.718Z,4
2022-10-31T21:50:15.073Z,4
2022-10-31T21:54:57.263Z,4
2022-10-31T21:59:39.585Z,4
2022-10-31T22:04:21.900Z,4
2022-10-31T22:09:04.114Z,4
2022-10-31T22:13:45.382Z,4
2022-10-31T22:18:26.702Z,4
2022-10-31T22:23:09.004Z,4
2022-10-31T22:27:51.317Z,4
2022-10-31T22:32:33.580Z,4
2022-10-31T22:37:15.888Z,4
2022-10-31T22:41:58.262Z,4
2022-10-31T22:46:40.424Z,4
2022-10-31T22:51:22.726Z,4
2022-10-31T22:56:04.983Z,4
2022-10-31T23:00:47.344Z,4
2022-10-31T23:05:29.506Z,4
2022-10-31T23:10:11.818Z,4
2022-10-31T23:14:54.241Z,4
2022-10-31T23:19:35.364Z,4
2022-10-31T23:33:42.254Z,4
2022-10-31T23:38:23.561Z,4
2022-10-31T23:43:04.802Z,4
2022-10-31T23:47:47.079Z,4
2022-10-31T23:52:29.433Z,4
2022-10-31T23:57:11.751Z,4
